sensor_id;sensor_type;location;lat;lon;timestamp;P1;durP1;ratioP1;P2;durP2;ratioP2
75890;SDS011;64571;47.512;19.054;2023-01-10T00:01:27;24.95;;;13.00;;
75890;SDS011;64571;47.512;19.054;2023-01-10T00:04:30;21.92;;;12.10;;
75890;SDS011;64571;47.512;19.054;2023-01-10T00:07:32;22.62;;;12.98;;
75890;SDS011;64571;47.512;19.054;2023-01-10T00:10:35;24.07;;;12.73;;
75890;SDS011;64571;47.512;19.054;2023-01-10T00:13:37;24.02;;;12.60;;
75890;SDS011;64571;47.512;19.054;2023-01-10T00:16:40;21.27;;;12.35;;
75890;SDS011;64571;47.512;19.054;2023-01-10T00:19:43;23.45;;;13.55;;
75890;SDS011;64571;47.512;19.054;2023-01-10T00:22:46;23.05;;;13.15;;
75890;SDS011;64571;47.512;19.054;2023-01-10T00:25:50;23.03;;;12.73;;
75890;SDS011;64571;47.512;19.054;2023-01-10T00:28:52;25.27;;;12.57;;
75890;SDS011;64571;47.512;19.054;2023-01-10T00:31:55;23.48;;;13.00;;
75890;SDS011;64571;47.512;19.054;2023-01-10T00:34:58;22.95;;;12.68;;
75890;SDS011;64571;47.512;19.054;2023-01-10T00:38:01;23.08;;;12.75;;
75890;SDS011;64571;47.512;19.054;2023-01-10T00:41:07;22.20;;;12.50;;
75890;SDS011;64571;47.512;19.054;2023-01-10T00:44:29;24.87;;;12.37;;
75890;SDS011;64571;47.512;19.054;2023-01-10T00:47:32;23.30;;;12.95;;
75890;SDS011;64571;47.512;19.054;2023-01-10T00:50:34;23.45;;;11.80;;
75890;SDS011;64571;47.512;19.054;2023-01-10T00:53:37;21.90;;;12.18;;
75890;SDS011;64571;47.512;19.054;2023-01-10T00:56:39;21.30;;;11.33;;
75890;SDS011;64571;47.512;19.054;2023-01-10T00:59:42;19.75;;;11.20;;
75890;SDS011;64571;47.512;19.054;2023-01-10T01:02:44;21.83;;;12.80;;
75890;SDS011;64571;47.512;19.054;2023-01-10T01:05:47;19.62;;;11.12;;
75890;SDS011;64571;47.512;19.054;2023-01-10T01:08:50;20.90;;;11.35;;
75890;SDS011;64571;47.512;19.054;2023-01-10T01:11:53;20.57;;;11.50;;
75890;SDS011;64571;47.512;19.054;2023-01-10T01:14:57;18.33;;;9.88;;
75890;SDS011;64571;47.512;19.054;2023-01-10T01:18:00;17.85;;;9.95;;
75890;SDS011;64571;47.512;19.054;2023-01-10T01:21:03;20.33;;;9.73;;
75890;SDS011;64571;47.512;19.054;2023-01-10T01:24:07;17.25;;;10.50;;
75890;SDS011;64571;47.512;19.054;2023-01-10T01:27:11;17.10;;;9.23;;
75890;SDS011;64571;47.512;19.054;2023-01-10T01:30:15;14.50;;;8.98;;
75890;SDS011;64571;47.512;19.054;2023-01-10T01:33:17;14.95;;;8.52;;
75890;SDS011;64571;47.512;19.054;2023-01-10T01:36:21;15.77;;;7.50;;
75890;SDS011;64571;47.512;19.054;2023-01-10T01:39:25;14.73;;;8.15;;
75890;SDS011;64571;47.512;19.054;2023-01-10T01:42:30;14.83;;;8.10;;
75890;SDS011;64571;47.512;19.054;2023-01-10T01:45:35;13.95;;;7.75;;
75890;SDS011;64571;47.512;19.054;2023-01-10T01:48:40;14.93;;;8.10;;
75890;SDS011;64571;47.512;19.054;2023-01-10T01:51:46;13.38;;;7.15;;
75890;SDS011;64571;47.512;19.054;2023-01-10T01:54:53;15.05;;;7.72;;
75890;SDS011;64571;47.512;19.054;2023-01-10T01:57:59;13.27;;;7.17;;
75890;SDS011;64571;47.512;19.054;2023-01-10T02:01:07;12.60;;;7.12;;
75890;SDS011;64571;47.512;19.054;2023-01-10T02:04:21;12.70;;;6.50;;
75890;SDS011;64571;47.512;19.054;2023-01-10T02:07:29;11.50;;;6.53;;
75890;SDS011;64571;47.512;19.054;2023-01-10T02:13:43;12.60;;;6.33;;
75890;SDS011;64571;47.512;19.054;2023-01-10T02:16:47;11.50;;;6.22;;
75890;SDS011;64571;47.512;19.054;2023-01-10T02:33:35;8.73;;;4.95;;
75890;SDS011;64571;47.512;19.054;2023-01-10T02:43:28;9.80;;;4.70;;
75890;SDS011;64571;47.512;19.054;2023-01-10T02:46:39;7.17;;;3.60;;
75890;SDS011;64571;47.512;19.054;2023-01-10T02:52:52;6.45;;;3.00;;
75890;SDS011;64571;47.512;19.054;2023-01-10T02:56:18;7.35;;;3.37;;
75890;SDS011;64571;47.512;19.054;2023-01-10T02:59:41;6.22;;;3.17;;
75890;SDS011;64571;47.512;19.054;2023-01-10T03:04:11;5.40;;;2.50;;
75890;SDS011;64571;47.512;19.054;2023-01-10T03:10:13;6.03;;;2.10;;
75890;SDS011;64571;47.512;19.054;2023-01-10T03:16:30;4.82;;;2.00;;
75890;SDS011;64571;47.512;19.054;2023-01-10T03:19:37;6.03;;;1.90;;
75890;SDS011;64571;47.512;19.054;2023-01-10T03:22:44;4.97;;;1.85;;
75890;SDS011;64571;47.512;19.054;2023-01-10T03:25:48;5.18;;;2.12;;
75890;SDS011;64571;47.512;19.054;2023-01-10T03:28:55;4.60;;;1.80;;
75890;SDS011;64571;47.512;19.054;2023-01-10T03:32:03;5.47;;;1.90;;
75890;SDS011;64571;47.512;19.054;2023-01-10T03:35:08;4.90;;;1.70;;
75890;SDS011;64571;47.512;19.054;2023-01-10T03:38:21;4.90;;;1.87;;
75890;SDS011;64571;47.512;19.054;2023-01-10T03:41:55;4.53;;;1.60;;
75890;SDS011;64571;47.512;19.054;2023-01-10T03:45:08;4.40;;;1.80;;
75890;SDS011;64571;47.512;19.054;2023-01-10T03:48:14;4.43;;;1.85;;
75890;SDS011;64571;47.512;19.054;2023-01-10T03:51:20;4.77;;;1.70;;
75890;SDS011;64571;47.512;19.054;2023-01-10T03:54:22;5.07;;;1.77;;
75890;SDS011;64571;47.512;19.054;2023-01-10T03:57:25;4.60;;;1.67;;
75890;SDS011;64571;47.512;19.054;2023-01-10T04:00:27;4.82;;;2.00;;
75890;SDS011;64571;47.512;19.054;2023-01-10T04:03:30;6.00;;;2.25;;
75890;SDS011;64571;47.512;19.054;2023-01-10T04:06:33;4.80;;;1.60;;
75890;SDS011;64571;47.512;19.054;2023-01-10T04:09:35;5.72;;;2.15;;
75890;SDS011;64571;47.512;19.054;2023-01-10T04:12:38;7.47;;;2.60;;
75890;SDS011;64571;47.512;19.054;2023-01-10T04:15:40;6.12;;;2.75;;
75890;SDS011;64571;47.512;19.054;2023-01-10T04:18:43;6.28;;;3.22;;
75890;SDS011;64571;47.512;19.054;2023-01-10T04:21:45;6.73;;;2.93;;
75890;SDS011;64571;47.512;19.054;2023-01-10T04:24:48;7.70;;;3.80;;
75890;SDS011;64571;47.512;19.054;2023-01-10T04:27:53;9.48;;;4.68;;
75890;SDS011;64571;47.512;19.054;2023-01-10T04:30:55;9.18;;;4.85;;
75890;SDS011;64571;47.512;19.054;2023-01-10T04:33:58;8.68;;;4.93;;
75890;SDS011;64571;47.512;19.054;2023-01-10T04:37:01;9.53;;;5.17;;
75890;SDS011;64571;47.512;19.054;2023-01-10T04:40:03;11.35;;;4.93;;
75890;SDS011;64571;47.512;19.054;2023-01-10T04:43:06;11.40;;;6.10;;
75890;SDS011;64571;47.512;19.054;2023-01-10T04:46:10;9.52;;;4.70;;
75890;SDS011;64571;47.512;19.054;2023-01-10T04:49:12;9.70;;;5.05;;
75890;SDS011;64571;47.512;19.054;2023-01-10T04:52:15;10.17;;;4.23;;
75890;SDS011;64571;47.512;19.054;2023-01-10T04:55:17;7.25;;;3.75;;
75890;SDS011;64571;47.512;19.054;2023-01-10T04:58:20;8.35;;;4.30;;
75890;SDS011;64571;47.512;19.054;2023-01-10T05:01:23;7.47;;;4.12;;
75890;SDS011;64571;47.512;19.054;2023-01-10T05:04:27;8.20;;;4.50;;
75890;SDS011;64571;47.512;19.054;2023-01-10T05:07:29;8.03;;;4.23;;
75890;SDS011;64571;47.512;19.054;2023-01-10T05:10:32;9.80;;;4.78;;
75890;SDS011;64571;47.512;19.054;2023-01-10T05:13:34;7.53;;;4.12;;
75890;SDS011;64571;47.512;19.054;2023-01-10T05:16:37;10.07;;;4.32;;
75890;SDS011;64571;47.512;19.054;2023-01-10T05:19:39;8.68;;;4.32;;
75890;SDS011;64571;47.512;19.054;2023-01-10T05:22:42;8.40;;;4.20;;
75890;SDS011;64571;47.512;19.054;2023-01-10T05:25:45;9.35;;;4.00;;
75890;SDS011;64571;47.512;19.054;2023-01-10T05:28:47;6.75;;;3.08;;
75890;SDS011;64571;47.512;19.054;2023-01-10T05:31:50;5.80;;;2.50;;
75890;SDS011;64571;47.512;19.054;2023-01-10T05:34:53;5.20;;;2.30;;
75890;SDS011;64571;47.512;19.054;2023-01-10T05:37:56;5.53;;;1.90;;
75890;SDS011;64571;47.512;19.054;2023-01-10T05:40:59;5.25;;;1.87;;
75890;SDS011;64571;47.512;19.054;2023-01-10T05:44:02;4.60;;;1.50;;
75890;SDS011;64571;47.512;19.054;2023-01-10T05:47:05;4.47;;;1.48;;
75890;SDS011;64571;47.512;19.054;2023-01-10T05:50:08;3.70;;;1.50;;
75890;SDS011;64571;47.512;19.054;2023-01-10T05:53:11;4.70;;;1.17;;
75890;SDS011;64571;47.512;19.054;2023-01-10T05:56:13;3.67;;;1.08;;
75890;SDS011;64571;47.512;19.054;2023-01-10T05:59:16;5.65;;;1.20;;
75890;SDS011;64571;47.512;19.054;2023-01-10T06:02:29;3.78;;;1.00;;
75890;SDS011;64571;47.512;19.054;2023-01-10T06:05:32;3.75;;;1.20;;
75890;SDS011;64571;47.512;19.054;2023-01-10T06:08:34;4.00;;;1.20;;
75890;SDS011;64571;47.512;19.054;2023-01-10T06:11:38;4.12;;;1.12;;
75890;SDS011;64571;47.512;19.054;2023-01-10T06:14:40;3.75;;;0.90;;
75890;SDS011;64571;47.512;19.054;2023-01-10T06:17:43;3.12;;;0.70;;
75890;SDS011;64571;47.512;19.054;2023-01-10T06:20:49;3.10;;;0.80;;
75890;SDS011;64571;47.512;19.054;2023-01-10T06:23:52;4.13;;;1.20;;
75890;SDS011;64571;47.512;19.054;2023-01-10T06:26:54;3.10;;;0.60;;
75890;SDS011;64571;47.512;19.054;2023-01-10T06:29:57;3.33;;;0.70;;
75890;SDS011;64571;47.512;19.054;2023-01-10T06:33:05;3.78;;;0.68;;
75890;SDS011;64571;47.512;19.054;2023-01-10T06:36:09;3.08;;;0.80;;
75890;SDS011;64571;47.512;19.054;2023-01-10T06:39:12;3.20;;;0.60;;
75890;SDS011;64571;47.512;19.054;2023-01-10T06:42:15;2.78;;;0.50;;
75890;SDS011;64571;47.512;19.054;2023-01-10T06:45:17;3.33;;;0.60;;
75890;SDS011;64571;47.512;19.054;2023-01-10T06:48:23;3.58;;;0.93;;
75890;SDS011;64571;47.512;19.054;2023-01-10T06:51:25;5.00;;;0.85;;
75890;SDS011;64571;47.512;19.054;2023-01-10T06:54:28;2.60;;;0.60;;
75890;SDS011;64571;47.512;19.054;2023-01-10T06:57:30;3.80;;;0.70;;
75890;SDS011;64571;47.512;19.054;2023-01-10T07:00:36;3.15;;;0.73;;
75890;SDS011;64571;47.512;19.054;2023-01-10T07:03:39;2.85;;;0.77;;
75890;SDS011;64571;47.512;19.054;2023-01-10T07:06:42;3.12;;;0.55;;
75890;SDS011;64571;47.512;19.054;2023-01-10T07:09:44;3.00;;;0.60;;
75890;SDS011;64571;47.512;19.054;2023-01-10T07:12:47;3.20;;;0.62;;
75890;SDS011;64571;47.512;19.054;2023-01-10T07:15:50;3.40;;;0.80;;
75890;SDS011;64571;47.512;19.054;2023-01-10T07:18:52;3.47;;;0.90;;
75890;SDS011;64571;47.512;19.054;2023-01-10T07:21:55;4.28;;;1.30;;
75890;SDS011;64571;47.512;19.054;2023-01-10T07:24:57;3.40;;;0.70;;
75890;SDS011;64571;47.512;19.054;2023-01-10T07:28:00;4.07;;;0.85;;
75890;SDS011;64571;47.512;19.054;2023-01-10T07:31:03;3.60;;;0.82;;
75890;SDS011;64571;47.512;19.054;2023-01-10T07:34:06;4.00;;;0.80;;
75890;SDS011;64571;47.512;19.054;2023-01-10T07:37:09;5.12;;;0.90;;
75890;SDS011;64571;47.512;19.054;2023-01-10T07:40:12;2.30;;;0.40;;
75890;SDS011;64571;47.512;19.054;2023-01-10T07:43:14;3.35;;;0.60;;
75890;SDS011;64571;47.512;19.054;2023-01-10T07:46:17;3.05;;;0.60;;
75890;SDS011;64571;47.512;19.054;2023-01-10T07:49:20;3.40;;;0.60;;
75890;SDS011;64571;47.512;19.054;2023-01-10T07:52:22;4.65;;;0.80;;
75890;SDS011;64571;47.512;19.054;2023-01-10T07:55:25;3.17;;;0.60;;
75890;SDS011;64571;47.512;19.054;2023-01-10T07:58:29;3.78;;;0.70;;
75890;SDS011;64571;47.512;19.054;2023-01-10T08:01:32;6.03;;;1.70;;
75890;SDS011;64571;47.512;19.054;2023-01-10T08:04:35;3.85;;;0.70;;
75890;SDS011;64571;47.512;19.054;2023-01-10T08:07:39;2.30;;;0.47;;
75890;SDS011;64571;47.512;19.054;2023-01-10T08:10:41;3.37;;;0.77;;
75890;SDS011;64571;47.512;19.054;2023-01-10T08:13:44;3.80;;;0.90;;
75890;SDS011;64571;47.512;19.054;2023-01-10T08:16:46;3.47;;;0.60;;
75890;SDS011;64571;47.512;19.054;2023-01-10T08:19:49;3.17;;;0.40;;
75890;SDS011;64571;47.512;19.054;2023-01-10T08:22:52;3.35;;;0.60;;
75890;SDS011;64571;47.512;19.054;2023-01-10T08:25:56;3.53;;;0.70;;
75890;SDS011;64571;47.512;19.054;2023-01-10T08:29:00;2.97;;;0.70;;
75890;SDS011;64571;47.512;19.054;2023-01-10T08:32:02;4.00;;;0.80;;
75890;SDS011;64571;47.512;19.054;2023-01-10T08:35:05;3.08;;;0.60;;
75890;SDS011;64571;47.512;19.054;2023-01-10T08:38:08;3.42;;;0.80;;
75890;SDS011;64571;47.512;19.054;2023-01-10T08:41:12;3.50;;;0.50;;
75890;SDS011;64571;47.512;19.054;2023-01-10T08:44:15;8.60;;;2.12;;
75890;SDS011;64571;47.512;19.054;2023-01-10T08:47:18;3.78;;;0.70;;
75890;SDS011;64571;47.512;19.054;2023-01-10T08:50:20;2.90;;;0.55;;
75890;SDS011;64571;47.512;19.054;2023-01-10T08:53:23;2.92;;;0.80;;
75890;SDS011;64571;47.512;19.054;2023-01-10T08:56:32;4.30;;;0.50;;
75890;SDS011;64571;47.512;19.054;2023-01-10T08:59:34;3.70;;;0.80;;
75890;SDS011;64571;47.512;19.054;2023-01-10T09:02:38;3.25;;;0.80;;
75890;SDS011;64571;47.512;19.054;2023-01-10T09:05:41;2.78;;;0.60;;
75890;SDS011;64571;47.512;19.054;2023-01-10T09:08:43;3.45;;;0.95;;
75890;SDS011;64571;47.512;19.054;2023-01-10T09:11:46;6.80;;;0.60;;
75890;SDS011;64571;47.512;19.054;2023-01-10T09:14:48;3.67;;;0.40;;
75890;SDS011;64571;47.512;19.054;2023-01-10T09:17:52;2.35;;;0.50;;
75890;SDS011;64571;47.512;19.054;2023-01-10T09:20:55;4.10;;;0.50;;
75890;SDS011;64571;47.512;19.054;2023-01-10T09:23:58;3.85;;;0.75;;
75890;SDS011;64571;47.512;19.054;2023-01-10T09:27:00;2.63;;;0.40;;
75890;SDS011;64571;47.512;19.054;2023-01-10T09:30:03;2.80;;;0.60;;
75890;SDS011;64571;47.512;19.054;2023-01-10T09:33:07;3.05;;;0.68;;
75890;SDS011;64571;47.512;19.054;2023-01-10T09:36:10;3.47;;;0.70;;
75890;SDS011;64571;47.512;19.054;2023-01-10T09:39:14;3.22;;;0.85;;
75890;SDS011;64571;47.512;19.054;2023-01-10T09:50:04;3.08;;;0.70;;
75890;SDS011;64571;47.512;19.054;2023-01-10T09:52:52;3.28;;;0.60;;
75890;SDS011;64571;47.512;19.054;2023-01-10T09:55:59;2.35;;;0.55;;
75890;SDS011;64571;47.512;19.054;2023-01-10T09:59:02;2.93;;;0.60;;
75890;SDS011;64571;47.512;19.054;2023-01-10T10:05:39;3.95;;;0.60;;
75890;SDS011;64571;47.512;19.054;2023-01-10T10:08:43;3.17;;;0.77;;
75890;SDS011;64571;47.512;19.054;2023-01-10T10:11:48;3.78;;;0.80;;
75890;SDS011;64571;47.512;19.054;2023-01-10T10:18:26;4.20;;;1.17;;
75890;SDS011;64571;47.512;19.054;2023-01-10T10:21:56;3.67;;;0.73;;
75890;SDS011;64571;47.512;19.054;2023-01-10T10:36:11;2.83;;;0.43;;
75890;SDS011;64571;47.512;19.054;2023-01-10T10:39:22;2.67;;;0.70;;
75890;SDS011;64571;47.512;19.054;2023-01-10T10:42:35;2.37;;;0.60;;
75890;SDS011;64571;47.512;19.054;2023-01-10T10:45:41;3.67;;;0.88;;
75890;SDS011;64571;47.512;19.054;2023-01-10T10:48:49;4.73;;;0.80;;
75890;SDS011;64571;47.512;19.054;2023-01-10T10:52:32;4.22;;;0.70;;
75890;SDS011;64571;47.512;19.054;2023-01-10T10:55:36;3.50;;;0.90;;
75890;SDS011;64571;47.512;19.054;2023-01-10T10:58:40;5.75;;;0.90;;
75890;SDS011;64571;47.512;19.054;2023-01-10T11:01:45;3.47;;;0.73;;
75890;SDS011;64571;47.512;19.054;2023-01-10T11:04:52;2.53;;;0.50;;
75890;SDS011;64571;47.512;19.054;2023-01-10T11:07:59;3.70;;;0.82;;
75890;SDS011;64571;47.512;19.054;2023-01-10T11:11:20;2.92;;;0.60;;
75890;SDS011;64571;47.512;19.054;2023-01-10T11:14:48;3.58;;;0.60;;
75890;SDS011;64571;47.512;19.054;2023-01-10T11:18:02;4.20;;;1.10;;
75890;SDS011;64571;47.512;19.054;2023-01-10T11:21:13;3.67;;;0.80;;
75890;SDS011;64571;47.512;19.054;2023-01-10T11:24:26;4.15;;;1.12;;
75890;SDS011;64571;47.512;19.054;2023-01-10T11:27:42;3.00;;;0.65;;
75890;SDS011;64571;47.512;19.054;2023-01-10T11:30:57;3.42;;;0.90;;
75890;SDS011;64571;47.512;19.054;2023-01-10T11:34:00;3.28;;;0.90;;
75890;SDS011;64571;47.512;19.054;2023-01-10T11:37:17;3.07;;;0.60;;
75890;SDS011;64571;47.512;19.054;2023-01-10T11:40:23;3.65;;;0.88;;
75890;SDS011;64571;47.512;19.054;2023-01-10T11:43:30;4.20;;;0.90;;
75890;SDS011;64571;47.512;19.054;2023-01-10T11:46:37;3.67;;;0.90;;
75890;SDS011;64571;47.512;19.054;2023-01-10T11:49:45;3.78;;;1.00;;
75890;SDS011;64571;47.512;19.054;2023-01-10T11:52:50;3.60;;;0.73;;
75890;SDS011;64571;47.512;19.054;2023-01-10T11:55:53;3.92;;;0.80;;
75890;SDS011;64571;47.512;19.054;2023-01-10T11:58:56;5.15;;;1.67;;
75890;SDS011;64571;47.512;19.054;2023-01-10T12:05:32;4.05;;;1.12;;
75890;SDS011;64571;47.512;19.054;2023-01-10T12:08:36;3.90;;;0.80;;
75890;SDS011;64571;47.512;19.054;2023-01-10T12:11:40;4.00;;;1.10;;
75890;SDS011;64571;47.512;19.054;2023-01-10T12:14:43;5.47;;;1.12;;
75890;SDS011;64571;47.512;19.054;2023-01-10T12:17:46;3.40;;;0.60;;
75890;SDS011;64571;47.512;19.054;2023-01-10T12:20:50;3.17;;;0.90;;
75890;SDS011;64571;47.512;19.054;2023-01-10T12:23:54;2.93;;;0.60;;
75890;SDS011;64571;47.512;19.054;2023-01-10T12:27:02;4.15;;;0.65;;
75890;SDS011;64571;47.512;19.054;2023-01-10T12:30:10;3.33;;;0.70;;
75890;SDS011;64571;47.512;19.054;2023-01-10T12:33:21;3.40;;;0.80;;
75890;SDS011;64571;47.512;19.054;2023-01-10T12:40:03;3.90;;;0.70;;
75890;SDS011;64571;47.512;19.054;2023-01-10T12:43:19;3.22;;;0.60;;
75890;SDS011;64571;47.512;19.054;2023-01-10T12:46:50;3.47;;;0.77;;
75890;SDS011;64571;47.512;19.054;2023-01-10T12:50:19;2.67;;;0.50;;
75890;SDS011;64571;47.512;19.054;2023-01-10T12:53:30;3.85;;;1.05;;
75890;SDS011;64571;47.512;19.054;2023-01-10T12:56:37;3.17;;;0.70;;
75890;SDS011;64571;47.512;19.054;2023-01-10T12:59:41;3.40;;;0.85;;
75890;SDS011;64571;47.512;19.054;2023-01-10T13:02:46;3.30;;;0.70;;
75890;SDS011;64571;47.512;19.054;2023-01-10T13:05:53;2.75;;;0.60;;
75890;SDS011;64571;47.512;19.054;2023-01-10T13:08:58;3.17;;;0.80;;
75890;SDS011;64571;47.512;19.054;2023-01-10T13:12:14;2.80;;;0.50;;
75890;SDS011;64571;47.512;19.054;2023-01-10T13:15:26;4.07;;;1.05;;
75890;SDS011;64571;47.512;19.054;2023-01-10T13:18:31;4.07;;;1.00;;
75890;SDS011;64571;47.512;19.054;2023-01-10T13:21:34;3.42;;;0.77;;
75890;SDS011;64571;47.512;19.054;2023-01-10T13:24:38;3.58;;;0.80;;
75890;SDS011;64571;47.512;19.054;2023-01-10T13:27:41;3.00;;;0.73;;
75890;SDS011;64571;47.512;19.054;2023-01-10T13:30:44;3.95;;;1.10;;
75890;SDS011;64571;47.512;19.054;2023-01-10T13:34:12;2.80;;;0.68;;
75890;SDS011;64571;47.512;19.054;2023-01-10T13:37:34;6.57;;;1.45;;
75890;SDS011;64571;47.512;19.054;2023-01-10T13:40:39;5.22;;;1.20;;
75890;SDS011;64571;47.512;19.054;2023-01-10T13:43:58;4.80;;;1.20;;
75890;SDS011;64571;47.512;19.054;2023-01-10T13:47:02;3.47;;;0.88;;
75890;SDS011;64571;47.512;19.054;2023-01-10T13:53:40;8.98;;;1.10;;
75890;SDS011;64571;47.512;19.054;2023-01-10T13:56:45;3.25;;;0.90;;
75890;SDS011;64571;47.512;19.054;2023-01-10T14:06:39;3.70;;;0.98;;
75890;SDS011;64571;47.512;19.054;2023-01-10T14:09:43;4.05;;;1.17;;
75890;SDS011;64571;47.512;19.054;2023-01-10T14:12:51;4.32;;;1.20;;
75890;SDS011;64571;47.512;19.054;2023-01-10T14:15:58;5.33;;;1.07;;
75890;SDS011;64571;47.512;19.054;2023-01-10T14:19:01;4.10;;;1.40;;
75890;SDS011;64571;47.512;19.054;2023-01-10T14:22:17;4.18;;;1.20;;
75890;SDS011;64571;47.512;19.054;2023-01-10T14:25:26;4.12;;;1.10;;
75890;SDS011;64571;47.512;19.054;2023-01-10T14:28:31;4.37;;;1.05;;
75890;SDS011;64571;47.512;19.054;2023-01-10T14:31:36;3.30;;;0.93;;
75890;SDS011;64571;47.512;19.054;2023-01-10T14:34:40;4.10;;;1.12;;
75890;SDS011;64571;47.512;19.054;2023-01-10T14:37:55;3.58;;;0.70;;
75890;SDS011;64571;47.512;19.054;2023-01-10T14:41:07;4.30;;;1.30;;
75890;SDS011;64571;47.512;19.054;2023-01-10T14:44:26;4.70;;;1.77;;
75890;SDS011;64571;47.512;19.054;2023-01-10T14:47:31;4.27;;;1.20;;
75890;SDS011;64571;47.512;19.054;2023-01-10T14:50:36;3.80;;;1.10;;
75890;SDS011;64571;47.512;19.054;2023-01-10T14:53:38;3.42;;;1.00;;
75890;SDS011;64571;47.512;19.054;2023-01-10T14:56:43;3.50;;;0.88;;
75890;SDS011;64571;47.512;19.054;2023-01-10T14:59:48;4.10;;;1.00;;
75890;SDS011;64571;47.512;19.054;2023-01-10T15:02:51;3.93;;;0.80;;
75890;SDS011;64571;47.512;19.054;2023-01-10T15:05:55;3.83;;;0.80;;
75890;SDS011;64571;47.512;19.054;2023-01-10T15:08:59;4.45;;;1.10;;
75890;SDS011;64571;47.512;19.054;2023-01-10T15:12:03;5.60;;;1.50;;
75890;SDS011;64571;47.512;19.054;2023-01-10T15:15:15;3.70;;;1.15;;
75890;SDS011;64571;47.512;19.054;2023-01-10T15:18:31;4.73;;;1.47;;
75890;SDS011;64571;47.512;19.054;2023-01-10T15:21:40;4.53;;;1.10;;
75890;SDS011;64571;47.512;19.054;2023-01-10T15:24:55;3.25;;;1.00;;
75890;SDS011;64571;47.512;19.054;2023-01-10T15:28:18;4.53;;;1.17;;
75890;SDS011;64571;47.512;19.054;2023-01-10T15:31:21;4.72;;;1.73;;
75890;SDS011;64571;47.512;19.054;2023-01-10T15:34:27;3.80;;;1.27;;
75890;SDS011;64571;47.512;19.054;2023-01-10T15:37:33;3.97;;;1.12;;
75890;SDS011;64571;47.512;19.054;2023-01-10T15:40:39;4.30;;;1.02;;
75890;SDS011;64571;47.512;19.054;2023-01-10T15:43:43;5.30;;;1.40;;
75890;SDS011;64571;47.512;19.054;2023-01-10T15:46:52;4.62;;;1.33;;
75890;SDS011;64571;47.512;19.054;2023-01-10T15:49:57;5.03;;;1.27;;
75890;SDS011;64571;47.512;19.054;2023-01-10T15:53:00;6.62;;;1.60;;
75890;SDS011;64571;47.512;19.054;2023-01-10T15:56:10;4.90;;;1.67;;
75890;SDS011;64571;47.512;19.054;2023-01-10T16:02:31;4.97;;;1.60;;
75890;SDS011;64571;47.512;19.054;2023-01-10T16:05:35;4.10;;;1.10;;
75890;SDS011;64571;47.512;19.054;2023-01-10T16:08:37;6.85;;;2.05;;
75890;SDS011;64571;47.512;19.054;2023-01-10T16:11:45;4.43;;;1.17;;
75890;SDS011;64571;47.512;19.054;2023-01-10T16:15:13;5.35;;;1.70;;
75890;SDS011;64571;47.512;19.054;2023-01-10T16:18:21;5.25;;;1.75;;
75890;SDS011;64571;47.512;19.054;2023-01-10T16:21:25;5.03;;;1.40;;
75890;SDS011;64571;47.512;19.054;2023-01-10T16:24:43;4.07;;;1.20;;
75890;SDS011;64571;47.512;19.054;2023-01-10T16:27:46;4.87;;;1.73;;
75890;SDS011;64571;47.512;19.054;2023-01-10T16:30:49;7.75;;;1.30;;
75890;SDS011;64571;47.512;19.054;2023-01-10T16:33:51;4.62;;;1.40;;
75890;SDS011;64571;47.512;19.054;2023-01-10T16:36:54;4.00;;;1.30;;
75890;SDS011;64571;47.512;19.054;2023-01-10T16:39:56;4.18;;;1.27;;
75890;SDS011;64571;47.512;19.054;2023-01-10T16:42:59;4.40;;;1.40;;
75890;SDS011;64571;47.512;19.054;2023-01-10T16:46:20;4.40;;;1.50;;
75890;SDS011;64571;47.512;19.054;2023-01-10T16:49:23;4.57;;;1.50;;
75890;SDS011;64571;47.512;19.054;2023-01-10T16:52:26;4.40;;;1.23;;
75890;SDS011;64571;47.512;19.054;2023-01-10T16:55:40;6.35;;;1.70;;
75890;SDS011;64571;47.512;19.054;2023-01-10T16:58:48;4.20;;;1.20;;
75890;SDS011;64571;47.512;19.054;2023-01-10T17:01:53;4.65;;;1.15;;
75890;SDS011;64571;47.512;19.054;2023-01-10T17:04:57;5.47;;;1.95;;
75890;SDS011;64571;47.512;19.054;2023-01-10T17:08:00;5.23;;;1.63;;
75890;SDS011;64571;47.512;19.054;2023-01-10T17:11:04;4.65;;;1.70;;
75890;SDS011;64571;47.512;19.054;2023-01-10T17:14:11;5.22;;;1.73;;
75890;SDS011;64571;47.512;19.054;2023-01-10T17:17:16;4.78;;;1.60;;
75890;SDS011;64571;47.512;19.054;2023-01-10T17:20:19;4.07;;;1.50;;
75890;SDS011;64571;47.512;19.054;2023-01-10T17:23:22;4.37;;;1.30;;
75890;SDS011;64571;47.512;19.054;2023-01-10T17:26:25;4.62;;;1.30;;
75890;SDS011;64571;47.512;19.054;2023-01-10T17:29:29;4.53;;;1.37;;
75890;SDS011;64571;47.512;19.054;2023-01-10T17:32:32;4.95;;;1.20;;
75890;SDS011;64571;47.512;19.054;2023-01-10T17:35:39;4.60;;;1.48;;
75890;SDS011;64571;47.512;19.054;2023-01-10T17:38:45;4.27;;;1.37;;
75890;SDS011;64571;47.512;19.054;2023-01-10T17:41:48;4.25;;;1.33;;
75890;SDS011;64571;47.512;19.054;2023-01-10T17:44:51;4.93;;;1.60;;
75890;SDS011;64571;47.512;19.054;2023-01-10T17:47:53;3.90;;;1.10;;
75890;SDS011;64571;47.512;19.054;2023-01-10T17:50:57;4.03;;;1.33;;
75890;SDS011;64571;47.512;19.054;2023-01-10T17:54:01;7.87;;;2.57;;
75890;SDS011;64571;47.512;19.054;2023-01-10T17:57:04;4.90;;;1.58;;
75890;SDS011;64571;47.512;19.054;2023-01-10T18:00:07;6.93;;;1.62;;
75890;SDS011;64571;47.512;19.054;2023-01-10T18:03:10;5.78;;;1.23;;
75890;SDS011;64571;47.512;19.054;2023-01-10T18:06:13;3.75;;;1.00;;
75890;SDS011;64571;47.512;19.054;2023-01-10T18:09:25;4.17;;;1.23;;
75890;SDS011;64571;47.512;19.054;2023-01-10T18:12:28;5.05;;;1.40;;
75890;SDS011;64571;47.512;19.054;2023-01-10T18:15:30;4.18;;;1.30;;
75890;SDS011;64571;47.512;19.054;2023-01-10T18:18:33;4.37;;;1.30;;
75890;SDS011;64571;47.512;19.054;2023-01-10T18:21:36;4.28;;;1.42;;
75890;SDS011;64571;47.512;19.054;2023-01-10T18:24:38;3.90;;;1.07;;
75890;SDS011;64571;47.512;19.054;2023-01-10T18:27:41;4.05;;;0.95;;
75890;SDS011;64571;47.512;19.054;2023-01-10T18:30:44;5.15;;;1.10;;
75890;SDS011;64571;47.512;19.054;2023-01-10T18:33:47;3.62;;;1.00;;
75890;SDS011;64571;47.512;19.054;2023-01-10T18:36:49;4.12;;;1.37;;
75890;SDS011;64571;47.512;19.054;2023-01-10T18:39:52;5.30;;;1.80;;
75890;SDS011;64571;47.512;19.054;2023-01-10T18:42:55;4.25;;;1.27;;
75890;SDS011;64571;47.512;19.054;2023-01-10T18:49:03;4.05;;;1.10;;
75890;SDS011;64571;47.512;19.054;2023-01-10T18:52:06;4.95;;;1.40;;
75890;SDS011;64571;47.512;19.054;2023-01-10T18:55:09;5.27;;;1.30;;
75890;SDS011;64571;47.512;19.054;2023-01-10T18:58:11;4.80;;;1.30;;
75890;SDS011;64571;47.512;19.054;2023-01-10T19:01:18;4.72;;;1.60;;
75890;SDS011;64571;47.512;19.054;2023-01-10T19:04:23;6.50;;;1.58;;
75890;SDS011;64571;47.512;19.054;2023-01-10T19:07:26;4.70;;;1.60;;
75890;SDS011;64571;47.512;19.054;2023-01-10T19:10:29;4.30;;;1.50;;
75890;SDS011;64571;47.512;19.054;2023-01-10T19:13:51;4.43;;;1.60;;
75890;SDS011;64571;47.512;19.054;2023-01-10T19:16:57;6.60;;;2.15;;
75890;SDS011;64571;47.512;19.054;2023-01-10T19:19:59;5.10;;;1.48;;
75890;SDS011;64571;47.512;19.054;2023-01-10T19:23:02;4.53;;;1.50;;
75890;SDS011;64571;47.512;19.054;2023-01-10T19:26:05;3.80;;;1.00;;
75890;SDS011;64571;47.512;19.054;2023-01-10T19:29:08;4.65;;;1.17;;
75890;SDS011;64571;47.512;19.054;2023-01-10T19:32:10;5.20;;;1.70;;
75890;SDS011;64571;47.512;19.054;2023-01-10T19:35:13;4.90;;;1.45;;
75890;SDS011;64571;47.512;19.054;2023-01-10T19:38:15;5.75;;;1.83;;
75890;SDS011;64571;47.512;19.054;2023-01-10T19:41:18;4.20;;;1.47;;